Time;durP1;ratioP1;P1;durP2;ratioP2;P2;SDS_P1;SDS_P2;PMS_P1;PMS_P2;Temp;Humidity;BMP_temperature;BMP_pressure;BME280_temperature;BME280_humidity;BME280_pressure;Samples;Min_cycle;Max_cycle;Signal;HPM_P1;HPM_P2
2021/03/23 00:00:22;;;;;;;12.82;7.25;;;;;;;;;;5027681;28;20912;-88
2021/03/23 00:02:49;;;;;;;11.32;7.00;;;;;;;;;;5059807;28;20425;-88
2021/03/23 00:05:15;;;;;;;12.95;7.30;;;;;;;;;;5029970;28;20417;-88
2021/03/23 00:07:47;;;;;;;17.05;7.93;;;;;;;;;;5022137;28;20414;-87
2021/03/23 00:10:13;;;;;;;16.50;7.72;;;;;;;;;;5022756;28;20393;-88
2021/03/23 00:12:39;;;;;;;12.95;8.07;;;;;;;;;;5042523;28;20424;-88
2021/03/23 00:15:07;;;;;;;12.23;7.22;;;;;;;;;;5024387;28;20493;-88
2021/03/23 00:17:33;;;;;;;13.10;7.40;;;;;;;;;;5049408;28;20416;-88
2021/03/23 00:19:59;;;;;;;12.85;7.80;;;;;;;;;;5038042;28;20407;-87
2021/03/23 00:22:25;;;;;;;14.23;7.00;;;;;;;;;;5038416;28;20908;-87
2021/03/23 00:24:51;;;;;;;12.35;7.53;;;;;;;;;;5025630;28;20900;-87
2021/03/23 00:27:17;;;;;;;15.63;8.43;;;;;;;;;;5043949;28;20397;-88
2021/03/23 00:29:46;;;;;;;14.13;7.55;;;;;;;;;;5022280;28;20420;-88
2021/03/23 00:32:12;;;;;;;17.98;12.40;;;;;;;;;;5041630;28;20390;-88
2021/03/23 00:34:38;;;;;;;21.00;12.10;;;;;;;;;;5025726;28;20451;-88
2021/03/23 00:37:04;;;;;;;15.98;11.32;;;;;;;;;;5017068;28;20479;-87
2021/03/23 00:39:30;;;;;;;16.42;11.13;;;;;;;;;;5024814;28;20401;-88
2021/03/23 00:41:56;;;;;;;14.20;8.37;;;;;;;;;;5023841;28;20592;-88
2021/03/23 00:44:22;;;;;;;11.63;7.75;;;;;;;;;;5013700;28;20443;-87
2021/03/23 00:46:48;;;;;;;11.98;6.53;;;;;;;;;;5048311;28;20427;-88
2021/03/23 00:49:13;;;;;;;14.00;7.70;;;;;;;;;;5018688;28;20397;-88
2021/03/23 00:51:39;;;;;;;13.55;9.25;;;;;;;;;;5043729;28;20447;-88
2021/03/23 00:54:05;;;;;;;12.98;8.80;;;;;;;;;;5029630;28;20393;-88
2021/03/23 00:56:31;;;;;;;17.75;10.57;;;;;;;;;;5021241;28;20469;-87
2021/03/23 00:58:57;;;;;;;14.27;8.70;;;;;;;;;;5032750;28;20451;-87
2021/03/23 01:01:23;;;;;;;13.57;7.30;;;;;;;;;;5056753;28;20805;-88
2021/03/23 01:03:49;;;;;;;11.07;6.93;;;;;;;;;;5026240;28;20883;-87
2021/03/23 01:06:15;;;;;;;10.18;6.40;;;;;;;;;;5025710;28;20444;-87
2021/03/23 01:08:41;;;;;;;18.15;12.95;;;;;;;;;;5041747;28;20438;-88
2021/03/23 01:11:07;;;;;;;15.50;11.85;;;;;;;;;;5050920;28;20449;-88
2021/03/23 01:13:33;;;;;;;14.50;10.80;;;;;;;;;;5050474;28;20410;-88
2021/03/23 01:15:59;;;;;;;14.10;7.70;;;;;;;;;;5033297;28;20512;-88
2021/03/23 01:18:25;;;;;;;12.07;7.40;;;;;;;;;;5032704;28;20499;-88
2021/03/23 01:20:51;;;;;;;12.18;7.20;;;;;;;;;;5021144;28;20410;-88
2021/03/23 01:23:17;;;;;;;12.82;7.25;;;;;;;;;;5028488;28;20425;-87
2021/03/23 01:25:43;;;;;;;12.95;7.70;;;;;;;;;;5057028;28;20388;-88
2021/03/23 01:28:09;;;;;;;11.63;6.80;;;;;;;;;;5050455;28;20408;-87
2021/03/23 01:30:35;;;;;;;14.68;7.53;;;;;;;;;;5026570;28;20406;-88
2021/03/23 01:33:01;;;;;;;13.65;7.07;;;;;;;;;;5017167;28;20409;-88
2021/03/23 01:35:27;;;;;;;13.90;7.27;;;;;;;;;;5046546;28;20430;-88
2021/03/23 01:37:53;;;;;;;11.52;7.15;;;;;;;;;;5034830;28;20405;-87
2021/03/23 01:40:20;;;;;;;10.85;6.95;;;;;;;;;;5049175;28;20399;-88
2021/03/23 01:42:47;;;;;;;12.10;7.40;;;;;;;;;;5024049;28;20521;-88
2021/03/23 01:45:18;;;;;;;11.02;7.47;;;;;;;;;;5049988;28;20401;-88
2021/03/23 01:47:45;;;;;;;12.20;7.07;;;;;;;;;;5020599;28;20410;-88
2021/03/23 01:50:11;;;;;;;15.45;7.57;;;;;;;;;;5039372;28;20537;-87
2021/03/23 01:52:37;;;;;;;14.98;7.35;;;;;;;;;;5019784;28;20408;-88
2021/03/23 01:55:04;;;;;;;11.70;7.22;;;;;;;;;;5053097;28;20437;-87
2021/03/23 01:57:30;;;;;;;18.17;11.43;;;;;;;;;;5038345;28;20405;-87
2021/03/23 01:59:57;;;;;;;21.80;12.10;;;;;;;;;;5028025;28;20766;-87
2021/03/23 02:02:24;;;;;;;19.42;12.50;;;;;;;;;;5037162;28;20475;-88
2021/03/23 02:04:50;;;;;;;18.63;10.20;;;;;;;;;;5039110;28;20880;-88
2021/03/23 02:07:16;;;;;;;15.45;8.35;;;;;;;;;;5039986;28;20397;-87
2021/03/23 02:09:42;;;;;;;13.98;7.75;;;;;;;;;;5020141;28;20763;-87
2021/03/23 02:12:09;;;;;;;11.77;7.73;;;;;;;;;;5049626;28;20597;-88
2021/03/23 02:14:36;;;;;;;12.68;9.02;;;;;;;;;;5015504;28;20435;-87
2021/03/23 02:17:23;;;;;;;18.10;11.35;;;;;;;;;;5012756;28;20407;-87
2021/03/23 02:20:01;;;;;;;19.73;9.85;;;;;;;;;;5056030;28;20412;-87
2021/03/23 02:22:27;;;;;;;15.00;8.23;;;;;;;;;;5036295;28;20524;-87
2021/03/23 02:24:53;;;;;;;12.75;8.07;;;;;;;;;;5054010;28;20472;-87
2021/03/23 02:27:19;;;;;;;14.85;8.40;;;;;;;;;;5020991;28;20403;-88
2021/03/23 02:29:45;;;;;;;15.85;9.13;;;;;;;;;;5036826;28;20387;-88
2021/03/23 02:32:11;;;;;;;13.35;7.55;;;;;;;;;;5026309;28;20415;-88
2021/03/23 02:34:37;;;;;;;15.30;7.55;;;;;;;;;;5015113;28;20469;-88
2021/03/23 02:37:03;;;;;;;12.50;7.17;;;;;;;;;;5034960;28;20405;-88
2021/03/23 02:39:29;;;;;;;12.48;7.93;;;;;;;;;;5016719;28;20500;-88
2021/03/23 02:41:56;;;;;;;17.27;8.10;;;;;;;;;;5041573;28;20932;-88
2021/03/23 02:44:22;;;;;;;11.82;7.65;;;;;;;;;;5047788;28;20760;-88
2021/03/23 02:46:48;;;;;;;17.00;9.83;;;;;;;;;;5032457;28;20403;-88
2021/03/23 02:49:14;;;;;;;14.00;8.77;;;;;;;;;;5035235;28;20471;-88
2021/03/23 02:51:40;;;;;;;12.52;6.95;;;;;;;;;;5023253;28;20475;-88
2021/03/23 02:54:06;;;;;;;11.50;7.40;;;;;;;;;;5035289;28;20914;-88
2021/03/23 02:56:32;;;;;;;13.50;8.00;;;;;;;;;;5036613;28;20402;-88
2021/03/23 02:58:58;;;;;;;11.80;8.15;;;;;;;;;;5042273;28;20437;-88
2021/03/23 03:01:24;;;;;;;12.00;7.68;;;;;;;;;;5041108;28;21144;-88
2021/03/23 03:03:50;;;;;;;14.32;7.80;;;;;;;;;;5020723;28;20421;-88
2021/03/23 03:06:16;;;;;;;11.85;8.25;;;;;;;;;;5036629;28;20409;-88
2021/03/23 03:08:42;;;;;;;13.48;7.93;;;;;;;;;;5026704;28;20394;-88
2021/03/23 03:11:08;;;;;;;11.95;7.93;;;;;;;;;;5039566;28;20485;-88
2021/03/23 03:13:34;;;;;;;11.00;7.65;;;;;;;;;;5040285;28;20932;-88
2021/03/23 03:16:01;;;;;;;19.77;8.75;;;;;;;;;;5036181;28;20539;-88
2021/03/23 03:18:27;;;;;;;12.33;8.10;;;;;;;;;;5052685;28;21059;-87
2021/03/23 03:20:53;;;;;;;13.10;8.63;;;;;;;;;;5026659;28;20405;-87
2021/03/23 03:23:19;;;;;;;13.57;7.43;;;;;;;;;;5048663;28;20421;-88
2021/03/23 03:25:49;;;;;;;15.75;8.48;;;;;;;;;;5025965;28;20412;-88
2021/03/23 03:28:15;;;;;;;41.13;10.03;;;;;;;;;;5037217;28;20401;-88
2021/03/23 03:30:41;;;;;;;15.32;8.23;;;;;;;;;;5026609;28;20866;-87
2021/03/23 03:33:07;;;;;;;11.90;7.85;;;;;;;;;;5015110;28;20462;-87
2021/03/23 03:35:34;;;;;;;10.90;7.65;;;;;;;;;;5034689;28;20401;-87
2021/03/23 03:38:01;;;;;;;17.95;8.38;;;;;;;;;;5064712;28;20454;-88
2021/03/23 03:40:28;;;;;;;11.38;7.47;;;;;;;;;;5021875;28;20388;-88
2021/03/23 03:42:54;;;;;;;13.48;7.22;;;;;;;;;;5020573;28;20429;-87
2021/03/23 03:45:20;;;;;;;9.85;6.70;;;;;;;;;;5025559;28;20414;-87
2021/03/23 03:47:48;;;;;;;12.95;7.63;;;;;;;;;;5034322;28;20432;-87
2021/03/23 03:50:14;;;;;;;11.20;7.67;;;;;;;;;;5034028;28;20425;-87
2021/03/23 03:52:40;;;;;;;11.75;6.80;;;;;;;;;;5023143;28;20452;-88
2021/03/23 03:55:06;;;;;;;9.25;6.53;;;;;;;;;;5048392;28;20397;-88
2021/03/23 03:57:32;;;;;;;10.30;7.00;;;;;;;;;;5025157;28;20510;-88
2021/03/23 03:59:58;;;;;;;10.63;6.93;;;;;;;;;;5055861;28;20488;-88
2021/03/23 04:02:24;;;;;;;12.73;6.60;;;;;;;;;;5036506;28;20421;-87
2021/03/23 04:04:50;;;;;;;8.55;6.65;;;;;;;;;;5036726;28;20439;-88
2021/03/23 04:07:16;;;;;;;10.25;6.90;;;;;;;;;;5048103;28;20955;-88
2021/03/23 04:09:42;;;;;;;12.27;8.00;;;;;;;;;;5022372;28;20988;-87
2021/03/23 04:12:08;;;;;;;9.63;6.50;;;;;;;;;;5036078;28;20521;-87
2021/03/23 04:14:34;;;;;;;11.52;6.95;;;;;;;;;;5051079;28;20459;-88
2021/03/23 04:17:00;;;;;;;10.80;7.07;;;;;;;;;;5048802;28;20401;-87
2021/03/23 04:19:27;;;;;;;11.57;6.85;;;;;;;;;;5051227;28;20476;-87
2021/03/23 04:21:53;;;;;;;11.15;7.22;;;;;;;;;;5035661;28;20944;-87
2021/03/23 04:24:19;;;;;;;9.40;7.00;;;;;;;;;;5026486;28;20411;-87
2021/03/23 04:26:45;;;;;;;12.15;7.03;;;;;;;;;;5052575;28;20399;-87
2021/03/23 04:29:11;;;;;;;13.30;7.68;;;;;;;;;;5023677;28;20410;-87
2021/03/23 04:31:40;;;;;;;13.98;8.73;;;;;;;;;;5014708;28;20848;-87
2021/03/23 04:34:07;;;;;;;24.60;15.23;;;;;;;;;;5022086;28;20407;-87
2021/03/23 04:36:33;;;;;;;10.85;8.70;;;;;;;;;;5049765;28;20401;-87
2021/03/23 04:38:59;;;;;;;11.43;7.03;;;;;;;;;;5038040;28;20420;-88
2021/03/23 04:41:25;;;;;;;13.20;8.20;;;;;;;;;;5041662;28;20927;-87
2021/03/23 04:43:51;;;;;;;11.13;7.00;;;;;;;;;;5031386;28;20874;-88
2021/03/23 04:46:22;;;;;;;11.67;7.97;;;;;;;;;;5045334;28;20392;-88
2021/03/23 04:48:48;;;;;;;10.38;6.80;;;;;;;;;;5020093;28;20442;-88
2021/03/23 04:51:14;;;;;;;13.95;7.40;;;;;;;;;;5027047;28;20393;-87
2021/03/23 04:53:40;;;;;;;11.38;7.63;;;;;;;;;;5028022;28;20984;-87
2021/03/23 04:56:06;;;;;;;11.27;7.63;;;;;;;;;;5030829;28;20463;-87
2021/03/23 04:58:32;;;;;;;16.20;9.13;;;;;;;;;;5049758;28;20488;-87
2021/03/23 05:00:58;;;;;;;14.10;8.87;;;;;;;;;;5022848;28;20491;-88
2021/03/23 05:03:31;;;;;;;14.48;8.60;;;;;;;;;;5022930;28;20433;-87
2021/03/23 05:05:58;;;;;;;9.30;6.85;;;;;;;;;;5013785;28;20498;-87
2021/03/23 05:08:24;;;;;;;11.98;7.28;;;;;;;;;;5046770;28;20458;-87
2021/03/23 05:10:50;;;;;;;12.05;7.53;;;;;;;;;;5014112;28;20429;-87
2021/03/23 05:13:16;;;;;;;12.07;7.32;;;;;;;;;;5025057;28;20429;-88
2021/03/23 05:15:45;;;;;;;10.30;6.20;;;;;;;;;;5010484;28;20496;-88
2021/03/23 05:18:11;;;;;;;11.98;7.55;;;;;;;;;;5024054;28;20414;-88
2021/03/23 05:20:37;;;;;;;12.23;6.80;;;;;;;;;;5046773;28;20396;-88
2021/03/23 05:23:03;;;;;;;14.00;8.07;;;;;;;;;;5018400;28;20999;-88
2021/03/23 05:25:29;;;;;;;10.98;8.20;;;;;;;;;;5026583;28;20497;-88
2021/03/23 05:27:55;;;;;;;11.90;7.35;;;;;;;;;;5032840;28;20481;-88
2021/03/23 05:30:21;;;;;;;11.07;7.37;;;;;;;;;;5033384;28;20468;-87
2021/03/23 05:32:47;;;;;;;10.45;7.28;;;;;;;;;;5030343;28;20498;-88
2021/03/23 05:35:13;;;;;;;14.73;7.40;;;;;;;;;;5014155;28;20519;-87
2021/03/23 05:37:39;;;;;;;11.40;7.13;;;;;;;;;;5015796;28;20412;-85
2021/03/23 05:40:06;;;;;;;12.20;7.30;;;;;;;;;;5009732;28;20401;-87
2021/03/23 05:42:34;;;;;;;16.98;8.27;;;;;;;;;;5049273;28;20436;-87
2021/03/23 05:45:05;;;;;;;10.35;6.65;;;;;;;;;;5039584;28;20404;-87
2021/03/23 05:47:35;;;;;;;13.80;6.93;;;;;;;;;;5034942;28;20401;-87
2021/03/23 05:50:04;;;;;;;13.80;7.43;;;;;;;;;;5029055;28;20424;-87
2021/03/23 05:52:32;;;;;;;16.35;7.95;;;;;;;;;;5047095;28;20492;-87
2021/03/23 05:55:00;;;;;;;12.60;7.20;;;;;;;;;;5045947;28;20393;-87
2021/03/23 05:57:31;;;;;;;10.38;6.65;;;;;;;;;;5019256;28;20403;-87
2021/03/23 05:59:58;;;;;;;10.55;6.50;;;;;;;;;;5030006;28;20399;-88
2021/03/23 06:02:37;;;;;;;13.35;7.38;;;;;;;;;;5053783;28;20405;-87
2021/03/23 06:05:22;;;;;;;9.85;6.65;;;;;;;;;;5048767;28;20409;-87
2021/03/23 06:07:51;;;;;;;10.57;6.38;;;;;;;;;;5047247;28;20401;-87
2021/03/23 06:10:17;;;;;;;15.38;6.93;;;;;;;;;;5039658;28;20425;-89
2021/03/23 06:12:45;;;;;;;8.68;6.13;;;;;;;;;;5031213;28;20417;-88
2021/03/23 06:15:13;;;;;;;14.73;6.95;;;;;;;;;;5029464;28;20411;-87
2021/03/23 06:17:39;;;;;;;10.40;7.05;;;;;;;;;;5016309;28;20409;-86
2021/03/23 06:20:40;;;;;;;10.30;6.50;;;;;;;;;;5053682;28;20979;-87
2021/03/23 06:23:09;;;;;;;11.35;7.38;;;;;;;;;;5054532;28;20904;-87
2021/03/23 06:25:48;;;;;;;18.05;8.88;;;;;;;;;;5053830;28;20401;-87
2021/03/23 06:28:26;;;;;;;20.50;11.88;;;;;;;;;;5036045;28;20409;-87
2021/03/23 06:31:11;;;;;;;21.23;10.07;;;;;;;;;;5052518;28;20767;-87
2021/03/23 06:33:46;;;;;;;20.57;10.90;;;;;;;;;;5054493;28;20390;-89
2021/03/23 06:36:43;;;;;;;15.65;7.97;;;;;;;;;;5055010;28;20401;-87
2021/03/23 06:39:10;;;;;;;17.75;9.18;;;;;;;;;;5052423;28;20397;-86
2021/03/23 06:41:36;;;;;;;12.20;8.63;;;;;;;;;;5052871;28;20904;-87
2021/03/23 06:44:14;;;;;;;15.55;8.40;;;;;;;;;;5021810;28;20496;-87
2021/03/23 06:46:41;;;;;;;16.40;9.23;;;;;;;;;;5045736;28;20414;-87
2021/03/23 06:49:13;;;;;;;13.40;8.50;;;;;;;;;;5038477;28;20884;-87
2021/03/23 06:51:52;;;;;;;18.35;9.00;;;;;;;;;;5051980;28;20461;-88
2021/03/23 06:54:19;;;;;;;11.18;8.90;;;;;;;;;;5043746;28;20409;-84
2021/03/23 06:56:45;;;;;;;14.43;8.35;;;;;;;;;;5020555;28;20403;-87
2021/03/23 06:59:12;;;;;;;12.27;7.10;;;;;;;;;;5033152;28;20914;-87
2021/03/23 07:01:39;;;;;;;10.70;7.68;;;;;;;;;;5053570;28;20404;-86
2021/03/23 07:04:15;;;;;;;8.17;6.73;;;;;;;;;;5043145;28;20425;-87
2021/03/23 07:06:41;;;;;;;10.88;7.43;;;;;;;;;;5048080;28;20421;-86
2021/03/23 07:09:13;;;;;;;10.63;7.93;;;;;;;;;;5031896;28;20411;-87
2021/03/23 07:11:53;;;;;;;11.52;8.98;;;;;;;;;;5046069;28;20393;-85
2021/03/23 07:14:31;;;;;;;12.93;10.43;;;;;;;;;;5018097;28;20409;-85
2021/03/23 07:17:10;;;;;;;15.00;10.88;;;;;;;;;;5051243;28;20389;-85
2021/03/23 07:19:49;;;;;;;13.10;8.20;;;;;;;;;;5035778;28;20402;-86
2021/03/23 07:22:42;;;;;;;12.05;7.30;;;;;;;;;;5013259;28;20416;-85
2021/03/23 07:25:28;;;;;;;10.30;7.85;;;;;;;;;;5048618;28;20401;-86
2021/03/23 07:28:09;;;;;;;10.00;6.82;;;;;;;;;;5031592;28;20467;-86
2021/03/23 07:30:36;;;;;;;12.05;7.15;;;;;;;;;;5052018;28;20410;-85
2021/03/23 07:33:02;;;;;;;11.63;7.00;;;;;;;;;;5013750;28;20433;-85
2021/03/23 07:35:32;;;;;;;12.07;7.55;;;;;;;;;;5050466;28;20815;-86
2021/03/23 07:37:59;;;;;;;12.57;7.00;;;;;;;;;;5034151;28;20413;-86
2021/03/23 07:40:30;;;;;;;11.80;7.90;;;;;;;;;;5034625;28;20393;-85
2021/03/23 07:43:15;;;;;;;11.30;6.90;;;;;;;;;;5033017;28;20733;-85
2021/03/23 07:45:48;;;;;;;11.95;7.22;;;;;;;;;;5051842;28;20401;-85
2021/03/23 07:48:34;;;;;;;15.00;7.70;;;;;;;;;;5052434;28;20391;-85
2021/03/23 07:51:19;;;;;;;13.38;7.70;;;;;;;;;;5041778;28;20937;-84
2021/03/23 07:53:45;;;;;;;15.32;8.73;;;;;;;;;;5037021;28;20478;-86
2021/03/23 07:56:19;;;;;;;12.77;8.68;;;;;;;;;;5034745;28;20441;-85
2021/03/23 07:59:04;;;;;;;17.40;11.25;;;;;;;;;;5034625;28;20459;-86
2021/03/23 08:01:36;;;;;;;17.20;9.98;;;;;;;;;;5051653;28;20396;-86
2021/03/23 08:04:03;;;;;;;15.70;9.23;;;;;;;;;;5032860;28;20916;-86
2021/03/23 08:06:51;;;;;;;14.65;9.82;;;;;;;;;;5031932;28;20408;-86
2021/03/23 08:09:32;;;;;;;19.98;11.80;;;;;;;;;;5031595;28;20460;-86
2021/03/23 08:12:17;;;;;;;16.63;11.07;;;;;;;;;;5046084;28;20440;-86
2021/03/23 08:14:49;;;;;;;24.17;13.10;;;;;;;;;;5028827;28;20757;-85
2021/03/23 08:17:18;;;;;;;15.75;10.10;;;;;;;;;;5052076;28;20412;-86
2021/03/23 08:20:20;;;;;;;15.02;9.68;;;;;;;;;;5035221;28;20409;-87
2021/03/23 08:22:46;;;;;;;14.32;9.98;;;;;;;;;;4963024;28;20490;-86
2021/03/23 08:25:15;;;;;;;19.15;11.80;;;;;;;;;;5017588;28;20887;-86
2021/03/23 08:28:00;;;;;;;14.48;9.63;;;;;;;;;;5032861;28;20823;-86
2021/03/23 08:30:47;;;;;;;14.55;10.38;;;;;;;;;;5037355;28;20398;-86
2021/03/23 08:33:20;;;;;;;18.52;10.73;;;;;;;;;;5045697;28;20425;-85
2021/03/23 08:36:05;;;;;;;16.13;11.88;;;;;;;;;;5015367;28;20458;-86
2021/03/23 08:38:34;;;;;;;15.75;11.65;;;;;;;;;;5051616;28;20918;-86
2021/03/23 08:41:12;;;;;;;22.00;13.02;;;;;;;;;;5045771;28;20424;-86
2021/03/23 08:43:39;;;;;;;17.33;12.02;;;;;;;;;;5037135;28;20539;-86
2021/03/23 08:46:25;;;;;;;21.87;14.37;;;;;;;;;;5050698;28;20400;-86
2021/03/23 08:48:55;;;;;;;16.88;13.15;;;;;;;;;;5033333;28;20394;-85
2021/03/23 08:51:21;;;;;;;20.73;14.93;;;;;;;;;;5040830;28;20405;-86
2021/03/23 08:53:58;;;;;;;20.60;13.20;;;;;;;;;;5030001;28;20398;-86
2021/03/23 08:56:42;;;;;;;21.80;14.23;;;;;;;;;;5030988;28;20409;-86
2021/03/23 08:59:27;;;;;;;22.95;14.48;;;;;;;;;;5042433;28;20900;-86
2021/03/23 09:01:55;;;;;;;20.27;14.02;;;;;;;;;;5047016;28;20396;-86
2021/03/23 09:04:31;;;;;;;22.70;14.63;;;;;;;;;;5028744;28;20414;-87
2021/03/23 09:06:59;;;;;;;23.20;14.50;;;;;;;;;;5054038;28;20397;-86
2021/03/23 09:09:28;;;;;;;19.27;14.25;;;;;;;;;;5032604;28;20406;-87
2021/03/23 09:12:00;;;;;;;23.67;14.95;;;;;;;;;;5048074;28;20409;-84
2021/03/23 09:14:27;;;;;;;21.95;15.55;;;;;;;;;;5049741;28;20459;-83
2021/03/23 09:16:53;;;;;;;20.55;13.38;;;;;;;;;;5034968;28;21013;-84
2021/03/23 09:19:31;;;;;;;20.20;13.35;;;;;;;;;;5049073;28;20444;-82
2021/03/23 09:22:00;;;;;;;24.23;13.18;;;;;;;;;;5039678;28;20396;-85
2021/03/23 09:24:39;;;;;;;23.15;14.30;;;;;;;;;;5050483;28;20492;-84
2021/03/23 09:27:07;;;;;;;23.88;14.57;;;;;;;;;;5040203;28;20405;-86
2021/03/23 09:29:34;;;;;;;24.25;14.63;;;;;;;;;;5030311;28;20426;-85
2021/03/23 09:32:01;;;;;;;22.60;14.27;;;;;;;;;;5052036;28;20459;-86
2021/03/23 09:34:51;;;;;;;22.33;15.07;;;;;;;;;;5030075;28;20415;-85
2021/03/23 09:37:32;;;;;;;19.00;14.30;;;;;;;;;;5048686;28;20397;-86
2021/03/23 09:39:58;;;;;;;21.23;13.57;;;;;;;;;;5033949;28;20484;-85
2021/03/23 09:42:27;;;;;;;20.58;14.30;;;;;;;;;;5052042;28;21007;-85
2021/03/23 09:44:57;;;;;;;24.60;15.63;;;;;;;;;;5054280;28;20406;-83
2021/03/23 09:47:37;;;;;;;20.95;14.43;;;;;;;;;;5037334;28;20496;-86
2021/03/23 09:50:12;;;;;;;22.90;14.57;;;;;;;;;;5020297;28;20397;-86
2021/03/23 09:52:38;;;;;;;19.52;14.75;;;;;;;;;;5054582;28;20880;-85
2021/03/23 09:55:04;;;;;;;22.83;13.80;;;;;;;;;;5036562;28;20476;-84
2021/03/23 09:57:31;;;;;;;17.63;14.00;;;;;;;;;;5037324;28;20761;-86
2021/03/23 10:00:01;;;;;;;17.90;14.02;;;;;;;;;;5033690;28;20862;-85
2021/03/23 10:02:30;;;;;;;17.55;14.07;;;;;;;;;;5050484;28;20462;-85
2021/03/23 10:04:56;;;;;;;15.57;12.60;;;;;;;;;;5048979;28;20411;-86
2021/03/23 10:07:38;;;;;;;18.67;13.65;;;;;;;;;;5044472;28;20416;-86
2021/03/23 10:10:07;;;;;;;21.58;14.32;;;;;;;;;;5053945;28;20523;-85
2021/03/23 10:12:33;;;;;;;19.58;14.57;;;;;;;;;;5038878;28;20448;-86
2021/03/23 10:14:59;;;;;;;19.50;14.57;;;;;;;;;;5032603;28;20434;-84
2021/03/23 10:17:26;;;;;;;19.58;13.93;;;;;;;;;;5045061;28;20405;-86
2021/03/23 10:20:01;;;;;;;21.65;13.85;;;;;;;;;;5035981;28;20748;-86
2021/03/23 10:22:28;;;;;;;18.40;14.80;;;;;;;;;;5035811;28;20780;-86
2021/03/23 10:24:54;;;;;;;19.52;14.10;;;;;;;;;;5054293;28;20397;-86
2021/03/23 10:27:29;;;;;;;16.63;12.65;;;;;;;;;;5040402;28;20405;-84
2021/03/23 10:30:04;;;;;;;15.10;10.90;;;;;;;;;;5034836;28;20413;-83
2021/03/23 10:32:38;;;;;;;15.00;11.85;;;;;;;;;;5035805;28;20397;-84
2021/03/23 10:35:07;;;;;;;14.02;11.80;;;;;;;;;;5050614;28;20441;-84
2021/03/23 10:37:33;;;;;;;21.08;12.77;;;;;;;;;;5036810;28;20603;-84
2021/03/23 10:39:59;;;;;;;17.90;11.48;;;;;;;;;;5036372;28;20456;-85
2021/03/23 10:42:27;;;;;;;14.27;12.02;;;;;;;;;;5052896;28;20882;-84
2021/03/23 10:45:11;;;;;;;16.10;11.83;;;;;;;;;;5035174;28;20401;-84
2021/03/23 10:47:38;;;;;;;15.23;12.52;;;;;;;;;;5053054;28;20397;-84
2021/03/23 10:50:21;;;;;;;12.00;9.60;;;;;;;;;;5027663;28;20409;-84
2021/03/23 10:52:47;;;;;;;18.35;10.07;;;;;;;;;;5017601;28;20415;-84
2021/03/23 10:55:22;;;;;;;11.50;9.15;;;;;;;;;;5053151;28;20409;-84
2021/03/23 10:57:48;;;;;;;11.05;9.77;;;;;;;;;;5052800;28;20416;-84
2021/03/23 11:00:17;;;;;;;14.90;9.02;;;;;;;;;;5035481;28;20406;-85
2021/03/23 11:02:43;;;;;;;13.23;11.45;;;;;;;;;;5043550;28;20413;-84
2021/03/23 11:05:17;;;;;;;13.57;10.90;;;;;;;;;;5035089;28;20889;-84
2021/03/23 11:07:46;;;;;;;12.10;9.35;;;;;;;;;;5037359;28;20390;-85
2021/03/23 11:10:12;;;;;;;9.98;9.07;;;;;;;;;;5052780;28;20887;-84
2021/03/23 11:12:38;;;;;;;11.15;9.85;;;;;;;;;;5035610;28;20417;-85
2021/03/23 11:15:10;;;;;;;9.65;8.65;;;;;;;;;;5035134;28;20406;-84
2021/03/23 11:17:46;;;;;;;9.52;8.60;;;;;;;;;;5048575;28;20408;-84
2021/03/23 11:20:15;;;;;;;12.27;8.25;;;;;;;;;;5020018;28;20413;-85
2021/03/23 11:22:42;;;;;;;7.82;6.25;;;;;;;;;;5035185;28;20448;-85
2021/03/23 11:25:08;;;;;;;6.73;5.60;;;;;;;;;;5041241;28;20398;-85
2021/03/23 11:27:34;;;;;;;6.68;6.03;;;;;;;;;;5026025;28;20404;-85
2021/03/23 11:30:00;;;;;;;6.93;5.25;;;;;;;;;;5036460;28;20401;-85
2021/03/23 11:32:27;;;;;;;7.68;6.30;;;;;;;;;;5034640;28;20420;-85
2021/03/23 11:34:53;;;;;;;9.00;6.30;;;;;;;;;;5051179;28;20393;-85
2021/03/23 11:37:19;;;;;;;10.07;6.85;;;;;;;;;;5034689;28;20408;-85
2021/03/23 11:39:45;;;;;;;9.68;7.25;;;;;;;;;;5052400;28;20401;-85
2021/03/23 11:42:13;;;;;;;9.70;7.88;;;;;;;;;;5042537;28;20429;-85
2021/03/23 11:44:43;;;;;;;13.45;8.88;;;;;;;;;;5031569;28;20949;-85
2021/03/23 11:47:12;;;;;;;14.27;8.98;;;;;;;;;;5030022;28;20404;-86
2021/03/23 11:49:41;;;;;;;12.85;8.55;;;;;;;;;;5049534;28;20388;-89
2021/03/23 11:52:08;;;;;;;10.23;8.75;;;;;;;;;;5026025;28;20408;-85
2021/03/23 11:54:34;;;;;;;12.50;8.17;;;;;;;;;;5029029;28;20413;-86
2021/03/23 11:57:00;;;;;;;11.85;8.60;;;;;;;;;;5055434;28;20403;-86
2021/03/23 11:59:26;;;;;;;14.57;9.02;;;;;;;;;;5051599;28;20402;-86
2021/03/23 12:01:52;;;;;;;11.98;9.20;;;;;;;;;;5024939;28;20432;-84
2021/03/23 12:04:18;;;;;;;13.80;10.32;;;;;;;;;;5007156;28;20421;-85
2021/03/23 12:06:49;;;;;;;12.57;8.93;;;;;;;;;;5051903;28;20478;-85
2021/03/23 12:09:18;;;;;;;12.63;8.75;;;;;;;;;;5017526;28;20791;-84
2021/03/23 12:12:03;;;;;;;11.10;7.90;;;;;;;;;;5011897;28;20508;-87
2021/03/23 12:14:31;;;;;;;9.57;7.57;;;;;;;;;;5043535;28;20504;-85
2021/03/23 12:17:12;;;;;;;10.32;7.60;;;;;;;;;;5035518;28;20416;-85
2021/03/23 12:19:42;;;;;;;9.75;6.55;;;;;;;;;;5036785;28;20416;-85
2021/03/23 12:22:09;;;;;;;7.63;6.70;;;;;;;;;;5030149;28;20539;-84
2021/03/23 12:24:35;;;;;;;9.05;6.65;;;;;;;;;;5044092;28;20515;-84
2021/03/23 12:27:03;;;;;;;9.90;6.68;;;;;;;;;;5028123;28;20438;-85
2021/03/23 12:29:29;;;;;;;8.68;6.30;;;;;;;;;;5008535;28;20420;-88
2021/03/23 12:31:55;;;;;;;7.57;6.10;;;;;;;;;;5010887;28;20408;-86
2021/03/23 12:34:21;;;;;;;7.70;6.40;;;;;;;;;;5026603;28;20559;-86
2021/03/23 12:36:47;;;;;;;7.10;6.40;;;;;;;;;;5008684;28;20409;-86
2021/03/23 12:39:16;;;;;;;8.07;5.43;;;;;;;;;;5008034;28;20418;-85
2021/03/23 12:41:42;;;;;;;7.97;5.75;;;;;;;;;;5008571;28;20410;-85
2021/03/23 12:44:08;;;;;;;6.10;5.50;;;;;;;;;;5001983;28;20422;-85
2021/03/23 12:46:34;;;;;;;5.53;4.80;;;;;;;;;;5033562;28;20393;-85
2021/03/23 12:49:00;;;;;;;6.53;5.47;;;;;;;;;;5022394;28;20451;-85
2021/03/23 12:51:30;;;;;;;5.53;4.97;;;;;;;;;;5016702;28;20389;-85
2021/03/23 12:53:59;;;;;;;4.70;4.20;;;;;;;;;;5026066;28;20759;-85
2021/03/23 12:56:25;;;;;;;5.03;4.53;;;;;;;;;;5036510;28;20393;-84
2021/03/23 12:58:51;;;;;;;5.10;4.70;;;;;;;;;;5015676;28;20406;-85
2021/03/23 13:01:18;;;;;;;5.47;4.50;;;;;;;;;;5049322;28;20412;-85
2021/03/23 13:03:44;;;;;;;5.45;4.80;;;;;;;;;;5050349;28;20440;-85
2021/03/23 13:06:16;;;;;;;7.20;5.50;;;;;;;;;;5032346;28;20393;-85
2021/03/23 13:08:42;;;;;;;7.50;5.78;;;;;;;;;;5031633;28;20468;-86
2021/03/23 13:11:12;;;;;;;5.40;4.88;;;;;;;;;;5018079;28;20410;-85
2021/03/23 13:13:45;;;;;;;5.80;5.22;;;;;;;;;;5031039;28;20417;-85
2021/03/23 13:16:12;;;;;;;5.75;5.15;;;;;;;;;;5033954;28;20384;-85
2021/03/23 13:18:38;;;;;;;5.70;5.10;;;;;;;;;;5060420;28;20888;-85
2021/03/23 13:21:07;;;;;;;6.70;5.50;;;;;;;;;;5044174;28;20445;-85
2021/03/23 13:23:39;;;;;;;6.07;5.47;;;;;;;;;;5048313;28;20419;-85
2021/03/23 13:26:05;;;;;;;7.90;5.65;;;;;;;;;;5031730;28;20395;-85
2021/03/23 13:28:37;;;;;;;5.47;4.97;;;;;;;;;;5044516;28;20409;-85
2021/03/23 13:31:03;;;;;;;7.82;5.50;;;;;;;;;;5063416;28;20430;-89
2021/03/23 13:33:35;;;;;;;6.37;5.50;;;;;;;;;;5023003;28;20397;-86
2021/03/23 13:36:03;;;;;;;6.35;5.53;;;;;;;;;;5040027;28;20397;-86
2021/03/23 13:38:29;;;;;;;6.10;5.50;;;;;;;;;;5029480;28;20512;-90
2021/03/23 13:40:54;;;;;;;7.40;5.50;;;;;;;;;;5040988;28;20423;-92
2021/03/23 13:43:21;;;;;;;8.20;5.47;;;;;;;;;;5013597;28;20901;-87
2021/03/23 13:46:03;;;;;;;7.80;5.57;;;;;;;;;;5040870;28;20398;-87
2021/03/23 13:48:30;;;;;;;6.10;5.60;;;;;;;;;;5028915;28;20407;-86
2021/03/23 13:50:57;;;;;;;8.15;5.78;;;;;;;;;;5028963;28;20922;-87
2021/03/23 13:53:23;;;;;;;5.80;5.15;;;;;;;;;;5031325;28;20504;-87
2021/03/23 13:55:49;;;;;;;6.05;5.47;;;;;;;;;;5021522;28;20550;-87
2021/03/23 13:58:16;;;;;;;8.82;6.28;;;;;;;;;;5033055;28;20488;-87
2021/03/23 14:00:42;;;;;;;6.18;5.38;;;;;;;;;;5016621;28;20394;-87
2021/03/23 14:03:08;;;;;;;8.10;5.82;;;;;;;;;;5017074;28;20425;-86
2021/03/23 14:05:34;;;;;;;5.57;5.18;;;;;;;;;;5016174;28;20768;-87
2021/03/23 14:08:01;;;;;;;10.67;7.00;;;;;;;;;;5033562;28;20411;-87
2021/03/23 14:10:28;;;;;;;8.60;6.47;;;;;;;;;;5019549;28;20405;-87
2021/03/23 14:12:56;;;;;;;9.38;7.07;;;;;;;;;;5008869;28;20879;-87
2021/03/23 14:15:24;;;;;;;6.97;6.20;;;;;;;;;;5008341;28;20434;-87
2021/03/23 14:17:50;;;;;;;6.75;6.05;;;;;;;;;;5046798;28;20417;-87
2021/03/23 14:20:17;;;;;;;8.30;6.30;;;;;;;;;;5039970;28;20468;-87
2021/03/23 14:22:43;;;;;;;7.95;5.93;;;;;;;;;;5053969;28;20835;-87
2021/03/23 14:25:18;;;;;;;7.68;6.88;;;;;;;;;;5036946;28;20761;-87
2021/03/23 14:27:46;;;;;;;7.30;6.60;;;;;;;;;;5035751;28;20401;-87
2021/03/23 14:30:24;;;;;;;8.90;6.60;;;;;;;;;;5053450;28;20408;-87
2021/03/23 14:32:50;;;;;;;8.43;6.97;;;;;;;;;;5039531;28;20980;-87
2021/03/23 14:35:19;;;;;;;14.82;7.22;;;;;;;;;;5042183;28;20396;-87
2021/03/23 14:37:49;;;;;;;7.85;6.43;;;;;;;;;;5041453;28;20405;-87
2021/03/23 14:40:18;;;;;;;10.55;6.88;;;;;;;;;;5027944;28;20797;-87